Time;durP1;ratioP1;P1;durP2;ratioP2;P2;SDS_P1;SDS_P2;PMS_P1;PMS_P2;Temp;Humidity;BMP_temperature;BMP_pressure;BME280_temperature;BME280_humidity;BME280_pressure;Samples;Min_cycle;Max_cycle;Signal;HPM_P1;HPM_P2
2022/03/28 00:00:07;;;;;;;8.05;4.45;;;;;;;8.82;37.12;101564.13;5111840;28;20081;-76
2022/03/28 00:02:32;;;;;;;10.15;4.32;;;;;;;8.77;36.48;101557.34;5111707;28;20035;-77
2022/03/28 00:04:58;;;;;;;7.97;4.57;;;;;;;8.78;36.70;101561.72;5112725;28;20024;-77
2022/03/28 00:07:23;;;;;;;10.00;4.57;;;;;;;8.71;37.08;101560.38;5110705;28;20348;-74
2022/03/28 00:09:49;;;;;;;14.30;4.65;;;;;;;8.62;36.79;101550.22;5112551;28;20096;-73
2022/03/28 00:12:14;;;;;;;10.50;4.63;;;;;;;8.58;36.97;101559.41;5112519;28;20046;-73
2022/03/28 00:14:40;;;;;;;104.90;42.85;;;;;;;8.50;38.12;101559.84;5112430;28;20030;-73
2022/03/28 00:17:06;;;;;;;253.18;104.03;;;;;;;8.48;38.83;101563.56;5112679;28;20026;-74
2022/03/28 00:19:31;;;;;;;315.05;140.07;;;;;;;8.43;39.28;101571.00;5110785;28;20039;-74
2022/03/28 00:21:57;;;;;;;188.57;81.68;;;;;;;8.30;40.00;101568.19;5112270;28;20031;-72
2022/03/28 00:24:22;;;;;;;229.15;104.35;;;;;;;8.19;40.28;101561.72;5112020;28;20044;-74
2022/03/28 00:26:48;;;;;;;181.77;84.75;;;;;;;8.06;40.26;101558.03;5112077;28;20036;-74
2022/03/28 00:29:13;;;;;;;139.98;62.97;;;;;;;7.81;39.86;101528.31;5111309;28;20222;-74
2022/03/28 00:31:39;;;;;;;107.38;50.20;;;;;;;7.83;40.22;101558.50;5109747;28;20028;-73
2022/03/28 00:34:05;;;;;;;83.22;40.03;;;;;;;7.69;40.87;101555.72;5110647;28;20023;-72
2022/03/28 00:36:30;;;;;;;68.53;30.55;;;;;;;7.56;41.60;101539.53;5111184;28;20063;-72
2022/03/28 00:38:56;;;;;;;185.38;81.72;;;;;;;7.46;41.66;101545.47;5109290;28;20614;-72
2022/03/28 00:41:22;;;;;;;129.55;55.40;;;;;;;7.35;41.95;101543.38;5110446;28;20421;-73
2022/03/28 00:43:58;;;;;;;100.05;46.30;;;;;;;7.26;41.95;101535.03;5109057;28;20051;-73
2022/03/28 00:46:24;;;;;;;84.65;38.22;;;;;;;7.19;42.22;101547.84;5109846;27;20068;-72
2022/03/28 00:48:51;;;;;;;53.70;23.88;;;;;;;7.07;42.72;101528.97;5110407;28;20023;-72
2022/03/28 00:51:17;;;;;;;74.60;30.63;;;;;;;7.06;43.28;101537.94;5108843;28;20114;-73
2022/03/28 00:53:44;;;;;;;61.03;24.98;;;;;;;6.90;42.85;101525.41;5109140;28;20629;-73
2022/03/28 00:56:14;;;;;;;54.83;22.50;;;;;;;6.82;43.08;101524.97;5110080;28;20153;-72
2022/03/28 00:58:39;;;;;;;69.20;28.25;;;;;;;6.79;43.44;101532.25;5110205;28;20795;-73
2022/03/28 01:01:05;;;;;;;82.03;33.15;;;;;;;6.66;43.77;101529.38;5110620;28;20023;-72
2022/03/28 01:03:30;;;;;;;169.75;56.95;;;;;;;6.67;43.95;101540.88;5108889;28;20401;-73
2022/03/28 01:05:56;;;;;;;252.68;88.07;;;;;;;6.56;44.25;101529.94;5109354;28;20092;-73
2022/03/28 01:08:23;;;;;;;116.22;46.10;;;;;;;6.46;44.67;101528.69;5108097;28;20156;-76
2022/03/28 01:10:52;;;;;;;24.70;10.60;;;;;;;6.41;44.80;101523.59;5108951;28;20028;-77
2022/03/28 01:13:18;;;;;;;152.43;75.05;;;;;;;6.32;45.22;101523.22;5110471;28;20042;-77
2022/03/28 01:15:44;;;;;;;34.83;17.85;;;;;;;6.25;45.22;101517.34;5113703;28;20375;-77
2022/03/28 01:18:11;;;;;;;147.00;74.78;;;;;;;6.21;45.29;101515.78;5111618;28;20031;-76
2022/03/28 01:20:39;;;;;;;64.93;34.20;;;;;;;6.14;44.99;101514.38;5109834;28;20499;-76
2022/03/28 01:23:05;;;;;;;41.67;21.15;;;;;;;5.98;45.05;101491.22;5111024;28;20540;-73
2022/03/28 01:25:30;;;;;;;41.33;18.70;;;;;;;6.03;45.61;101510.53;5109737;28;20114;-73
2022/03/28 01:27:58;;;;;;;54.35;25.73;;;;;;;5.97;45.63;101517.00;5110721;28;20027;-73
2022/03/28 01:30:25;;;;;;;61.83;29.20;;;;;;;5.92;45.76;101524.34;5109272;28;20124;-73
2022/03/28 01:32:54;;;;;;;63.25;27.40;;;;;;;5.83;46.30;101516.81;5109695;28;20024;-73
2022/03/28 01:35:26;;;;;;;93.78;42.88;;;;;;;5.80;46.24;101513.44;5108609;28;20095;-73
2022/03/28 01:37:52;;;;;;;121.25;51.55;;;;;;;5.65;46.58;101507.06;5108369;28;20050;-72
2022/03/28 01:40:17;;;;;;;73.97;33.13;;;;;;;5.61;46.63;101510.78;5109450;28;20394;-73
2022/03/28 01:42:45;;;;;;;67.63;29.30;;;;;;;5.60;46.53;101511.72;5109222;28;20126;-73
2022/03/28 01:45:11;;;;;;;49.88;21.67;;;;;;;5.53;47.00;101504.97;5110735;28;20412;-73
2022/03/28 01:47:37;;;;;;;94.65;43.33;;;;;;;5.49;47.02;101510.53;5110661;28;20031;-73
2022/03/28 01:50:04;;;;;;;72.13;35.97;;;;;;;5.45;47.10;101504.47;5109532;28;20032;-74
2022/03/28 01:52:29;;;;;;;48.50;23.17;;;;;;;5.36;47.11;101496.97;5110520;28;20032;-73
2022/03/28 01:54:55;;;;;;;68.43;29.85;;;;;;;5.35;47.04;101505.00;5109467;28;20062;-73
2022/03/28 01:57:20;;;;;;;111.13;50.22;;;;;;;5.28;47.40;101495.56;5109120;28;20487;-73
2022/03/28 01:59:46;;;;;;;95.95;45.50;;;;;;;5.24;47.31;101491.34;5113188;28;20086;-73
2022/03/28 02:02:11;;;;;;;106.68;50.22;;;;;;;5.15;47.05;101479.34;5112879;28;20097;-73
2022/03/28 02:04:36;;;;;;;212.88;95.28;;;;;;;5.02;47.44;101462.25;5112994;28;20057;-73
2022/03/28 02:07:02;;;;;;;306.40;139.38;;;;;;;5.03;47.62;101465.78;5114810;28;20110;-73
2022/03/28 02:09:28;;;;;;;220.13;95.70;;;;;;;5.07;47.88;101486.84;5114251;28;20027;-73
2022/03/28 02:11:53;;;;;;;140.73;59.63;;;;;;;5.07;48.01;101494.81;5114330;28;20035;-72
2022/03/28 02:14:19;;;;;;;148.02;65.40;;;;;;;4.96;48.05;101481.13;5112746;28;20812;-73
2022/03/28 02:16:45;;;;;;;69.40;32.97;;;;;;;4.90;48.51;101472.59;5112804;28;20429;-73
2022/03/28 02:19:10;;;;;;;59.08;26.30;;;;;;;4.85;48.93;101464.81;5114320;28;20148;-72
2022/03/28 02:21:36;;;;;;;64.85;26.63;;;;;;;4.90;49.09;101478.75;5113991;28;20043;-72
2022/03/28 02:24:01;;;;;;;35.58;16.77;;;;;;;4.92;49.36;101492.84;5114175;28;20474;-73
2022/03/28 02:26:27;;;;;;;20.98;9.70;;;;;;;4.83;48.98;101473.81;5113867;28;20067;-73
2022/03/28 02:28:52;;;;;;;24.35;11.40;;;;;;;4.89;48.92;101484.13;5112382;28;20027;-73
2022/03/28 02:31:18;;;;;;;58.80;25.38;;;;;;;4.80;48.85;101474.78;5113993;28;20036;-74
2022/03/28 02:33:44;;;;;;;32.53;14.32;;;;;;;4.77;48.88;101463.47;5113778;28;20024;-73
2022/03/28 02:36:10;;;;;;;23.33;10.13;;;;;;;4.81;48.81;101481.84;5114057;28;20031;-73
2022/03/28 02:38:36;;;;;;;19.13;8.55;;;;;;;4.69;48.67;101467.34;5114432;28;20031;-76
2022/03/28 02:41:02;;;;;;;19.30;9.02;;;;;;;4.69;48.78;101472.66;5112881;28;20053;-77
2022/03/28 02:43:27;;;;;;;62.00;26.23;;;;;;;4.62;48.96;101471.16;5113877;28;20048;-76
2022/03/28 02:45:53;;;;;;;109.10;45.80;;;;;;;4.49;49.18;101470.00;5113840;28;20121;-77
2022/03/28 02:48:18;;;;;;;77.15;31.15;;;;;;;4.43;48.96;101469.44;5114448;28;20030;-77
2022/03/28 02:50:45;;;;;;;88.25;37.03;;;;;;;4.40;49.12;101475.75;5113569;28;20027;-76
2022/03/28 02:53:11;;;;;;;61.75;27.30;;;;;;;4.22;49.09;101449.09;5113543;28;20062;-76
2022/03/28 02:55:38;;;;;;;42.03;18.40;;;;;;;4.34;49.86;101475.13;5112620;28;20034;-76
2022/03/28 02:58:04;;;;;;;28.85;13.82;;;;;;;4.24;49.80;101460.53;5114163;28;20111;-77
2022/03/28 03:00:29;;;;;;;40.63;17.40;;;;;;;4.24;49.73;101476.47;5113565;28;20116;-76
2022/03/28 03:02:55;;;;;;;28.80;13.27;;;;;;;4.22;50.13;101478.31;5113532;28;20027;-76
2022/03/28 03:05:23;;;;;;;37.28;16.13;;;;;;;4.14;49.59;101472.50;5113101;28;20081;-76
2022/03/28 03:07:49;;;;;;;78.13;30.40;;;;;;;4.14;49.90;101483.09;5112326;28;20024;-76
2022/03/28 03:10:15;;;;;;;55.95;23.23;;;;;;;4.08;50.26;101475.41;5107797;28;20044;-75
2022/03/28 03:12:40;;;;;;;58.78;23.58;;;;;;;4.05;50.25;101479.06;5112130;28;20030;-76
2022/03/28 03:15:06;;;;;;;47.65;17.40;;;;;;;4.07;49.57;101487.81;5113491;28;20031;-77
2022/03/28 03:17:31;;;;;;;71.60;27.83;;;;;;;4.01;49.98;101479.25;5108003;28;20111;-77
2022/03/28 03:19:57;;;;;;;86.60;34.00;;;;;;;4.02;50.33;101486.28;5111016;28;20027;-77
2022/03/28 03:22:23;;;;;;;103.13;40.92;;;;;;;3.99;50.39;101483.75;5112733;28;20023;-76
2022/03/28 03:24:49;;;;;;;42.45;16.83;;;;;;;3.96;50.26;101476.78;5112658;28;20035;-77
2022/03/28 03:27:14;;;;;;;100.40;36.03;;;;;;;3.91;50.49;101480.56;5111695;28;20023;-76
2022/03/28 03:29:41;;;;;;;62.17;22.63;;;;;;;3.91;50.38;101486.75;5109898;28;20067;-77
2022/03/28 03:32:07;;;;;;;80.78;31.15;;;;;;;3.91;50.73;101488.53;5111114;28;20023;-76
2022/03/28 03:34:34;;;;;;;80.15;32.25;;;;;;;3.88;50.72;101489.53;5112056;28;20089;-76
2022/03/28 03:37:00;;;;;;;55.40;20.98;;;;;;;3.86;50.73;101487.84;5112121;28;20035;-77
2022/03/28 03:39:26;;;;;;;28.50;11.40;;;;;;;3.88;50.65;101491.31;5112399;28;20115;-76
2022/03/28 03:41:53;;;;;;;24.55;10.45;;;;;;;3.87;50.76;101486.94;5115446;27;20527;-76
2022/03/28 03:44:19;;;;;;;69.47;23.65;;;;;;;3.84;50.33;101487.06;5112938;27;20048;-76
2022/03/28 03:46:44;;;;;;;90.30;31.63;;;;;;;3.78;50.88;101482.00;5113860;27;20065;-77
2022/03/28 03:49:10;;;;;;;131.25;49.67;;;;;;;3.65;51.19;101464.88;5115100;27;20054;-76
2022/03/28 03:51:36;;;;;;;134.43;50.90;;;;;;;3.68;51.57;101484.16;5116118;27;20034;-72
2022/03/28 03:54:02;;;;;;;177.18;64.47;;;;;;;3.62;51.52;101467.66;5118816;27;20042;-74
2022/03/28 03:56:28;;;;;;;107.50;40.80;;;;;;;3.64;51.76;101482.56;5114393;27;20031;-72
2022/03/28 03:58:55;;;;;;;69.20;27.40;;;;;;;3.57;51.91;101477.56;5118393;27;20054;-72
2022/03/28 04:01:21;;;;;;;91.88;32.95;;;;;;;3.54;52.12;101472.38;5108652;27;20421;-73
2022/03/28 04:03:47;;;;;;;107.88;38.78;;;;;;;3.53;52.04;101482.16;5112264;27;20032;-72
2022/03/28 04:06:12;;;;;;;166.63;61.58;;;;;;;3.55;51.92;101482.09;5114127;27;20027;-72
2022/03/28 04:08:38;;;;;;;285.50;104.32;;;;;;;3.46;52.03;101471.84;5110098;27;20036;-72
2022/03/28 04:11:04;;;;;;;152.35;55.10;;;;;;;3.36;52.16;101462.53;5114077;27;20340;-75
2022/03/28 04:13:31;;;;;;;210.95;81.82;;;;;;;3.39;52.30;101473.03;5110710;28;20482;-76
2022/03/28 04:15:57;;;;;;;73.63;29.60;;;;;;;3.36;52.52;101479.31;5110990;28;20027;-76
2022/03/28 04:18:25;;;;;;;121.32;45.83;;;;;;;3.39;52.50;101476.53;5112184;27;20039;-76
2022/03/28 04:20:51;;;;;;;159.05;60.40;;;;;;;3.23;52.65;101470.13;5111406;28;20152;-76
2022/03/28 04:23:17;;;;;;;128.90;53.85;;;;;;;3.35;52.40;101490.84;5110472;28;20016;-76
2022/03/28 04:25:42;;;;;;;118.20;47.53;;;;;;;3.26;52.97;101479.75;5112121;28;20038;-76
2022/03/28 04:28:08;;;;;;;103.10;43.65;;;;;;;3.25;52.69;101478.00;5110708;28;20027;-77
2022/03/28 04:30:34;;;;;;;103.00;39.30;;;;;;;3.17;53.12;101467.72;5110799;28;20047;-76
2022/03/28 04:33:00;;;;;;;86.97;34.65;;;;;;;3.18;53.09;101473.88;5111147;28;20033;-77
2022/03/28 04:35:25;;;;;;;241.32;97.35;;;;;;;3.16;53.20;101467.78;5111126;28;20425;-76
2022/03/28 04:37:51;;;;;;;195.38;84.75;;;;;;;3.22;53.66;101486.09;5110996;27;20031;-77
2022/03/28 04:40:17;;;;;;;152.23;60.47;;;;;;;3.22;53.42;101491.41;5110945;28;20487;-76
2022/03/28 04:42:44;;;;;;;102.20;44.30;;;;;;;3.17;53.72;101482.75;5111243;28;20499;-76
2022/03/28 04:45:10;;;;;;;94.57;38.83;;;;;;;3.10;53.39;101474.19;5110788;28;20080;-76
2022/03/28 04:47:36;;;;;;;163.27;66.68;;;;;;;3.09;53.82;101468.94;5110634;28;20035;-76
2022/03/28 04:50:02;;;;;;;84.88;34.40;;;;;;;3.15;54.01;101480.16;5109348;28;20020;-76
2022/03/28 04:52:28;;;;;;;42.97;16.42;;;;;;;3.19;53.90;101495.00;5110428;28;20083;-77
2022/03/28 04:54:54;;;;;;;40.90;14.85;;;;;;;3.17;54.08;101485.41;5109290;28;20016;-76
2022/03/28 04:57:20;;;;;;;129.98;49.85;;;;;;;3.12;53.92;101467.03;5108932;28;20027;-77
2022/03/28 04:59:45;;;;;;;101.75;42.53;;;;;;;3.18;53.89;101493.28;5109091;28;20333;-77
2022/03/28 05:02:10;;;;;;;138.70;54.72;;;;;;;3.10;53.91;101463.59;5109618;28;20039;-76
2022/03/28 05:04:36;;;;;;;128.50;48.97;;;;;;;3.13;53.78;101471.38;5108460;28;20024;-76
2022/03/28 05:07:02;;;;;;;159.48;56.15;;;;;;;3.17;53.86;101473.03;5113465;28;20019;-76
2022/03/28 05:09:27;;;;;;;123.18;40.35;;;;;;;3.21;53.77;101479.03;5110184;28;20035;-76
2022/03/28 05:11:53;;;;;;;94.18;32.13;;;;;;;3.17;54.27;101462.41;5111153;28;20047;-76
2022/03/28 05:14:19;;;;;;;91.63;31.90;;;;;;;3.25;54.33;101478.88;5109657;28;20050;-76
2022/03/28 05:16:45;;;;;;;120.53;47.80;;;;;;;3.25;54.53;101470.03;5110817;28;20023;-75
2022/03/28 05:19:10;;;;;;;128.20;51.00;;;;;;;3.28;55.20;101469.91;5110951;28;20031;-76
2022/03/28 05:21:36;;;;;;;179.18;69.38;;;;;;;3.37;55.13;101477.50;5110812;28;20020;-76
2022/03/28 05:24:02;;;;;;;172.40;49.88;;;;;;;3.44;55.05;101481.66;5109806;28;20024;-76
2022/03/28 05:26:28;;;;;;;108.00;30.85;;;;;;;3.47;54.75;101473.56;5104582;28;20084;-76
2022/03/28 05:28:53;;;;;;;141.10;22.42;;;;;;;3.55;54.83;101479.44;5110569;28;20082;-75
2022/03/28 05:31:19;;;;;;;105.88;19.65;;;;;;;3.59;54.30;101462.47;5110870;28;20872;-75
2022/03/28 05:33:44;;;;;;;120.82;26.25;;;;;;;3.69;54.35;101469.13;5112354;28;20038;-76
2022/03/28 05:36:10;;;;;;;101.60;23.58;;;;;;;3.80;53.98;101473.06;5115238;28;20015;-76
2022/03/28 05:38:36;;;;;;;155.93;24.00;;;;;;;3.91;53.93;101472.59;5114777;28;20054;-76
2022/03/28 05:41:04;;;;;;;82.50;19.08;;;;;;;4.05;54.05;101476.41;5114746;28;20031;-75
2022/03/28 05:43:30;;;;;;;72.38;20.05;;;;;;;4.18;53.24;101468.75;5112777;28;20062;-75
2022/03/28 05:45:56;;;;;;;86.45;24.75;;;;;;;4.22;52.87;101462.38;5113438;28;20071;-76
2022/03/28 05:48:22;;;;;;;87.57;27.38;;;;;;;4.37;52.83;101451.97;5114782;28;20806;-76
2022/03/28 05:50:49;;;;;;;107.60;30.60;;;;;;;4.48;52.18;101456.78;5115541;28;20027;-75
2022/03/28 05:53:15;;;;;;;90.72;27.30;;;;;;;4.62;52.18;101457.88;5114927;28;20023;-76
2022/03/28 05:55:41;;;;;;;118.85;25.88;;;;;;;4.75;51.77;101453.75;5113444;28;20012;-75
2022/03/28 05:58:08;;;;;;;110.30;26.73;;;;;;;4.96;51.83;101464.34;5114533;28;20042;-76
2022/03/28 06:00:35;;;;;;;123.43;31.52;;;;;;;5.08;51.35;101448.66;5112517;28;20046;-76
2022/03/28 06:03:00;;;;;;;129.93;33.42;;;;;;;5.28;51.50;101455.66;5114567;28;20055;-75
2022/03/28 06:05:26;;;;;;;133.40;32.58;;;;;;;5.42;51.31;101442.59;5114327;28;20100;-76
2022/03/28 06:07:51;;;;;;;107.63;26.27;;;;;;;5.68;50.96;101456.31;5113125;28;20511;-76
2022/03/28 06:10:17;;;;;;;96.97;21.88;;;;;;;5.84;50.41;101446.66;5114202;28;20032;-76
2022/03/28 06:12:43;;;;;;;62.92;19.35;;;;;;;6.14;48.52;101460.22;5114718;28;20167;-76
2022/03/28 06:15:09;;;;;;;72.38;19.48;;;;;;;6.31;47.43;101442.44;5113577;28;20117;-76
2022/03/28 06:17:34;;;;;;;82.70;20.05;;;;;;;6.54;46.38;101444.72;5114555;28;20114;-76
2022/03/28 06:20:03;;;;;;;65.43;18.17;;;;;;;6.80;45.74;101438.84;5114481;28;20088;-76
2022/03/28 06:22:28;;;;;;;56.92;15.63;;;;;;;7.07;44.37;101432.94;5112919;28;20465;-76
2022/03/28 06:24:54;;;;;;;39.08;13.68;;;;;;;7.42;43.01;101451.38;5113875;28;20019;-76
2022/03/28 06:27:23;;;;;;;27.05;11.07;;;;;;;7.68;41.75;101439.19;5114134;28;20037;-76
2022/03/28 06:29:52;;;;;;;22.88;9.68;;;;;;;7.97;37.73;101436.50;5114110;27;20115;-76
2022/03/28 06:32:18;;;;;;;21.65;8.65;;;;;;;8.39;35.79;101446.50;5113002;28;20499;-76
2022/03/28 06:34:44;;;;;;;21.17;8.98;;;;;;;8.65;35.31;101429.69;5113955;28;20015;-76
2022/03/28 06:37:09;;;;;;;21.73;9.70;;;;;;;9.04;34.54;101445.91;5114235;28;20105;-76
2022/03/28 06:39:35;;;;;;;26.25;9.27;;;;;;;9.30;33.33;101434.41;5114007;27;20031;-76
2022/03/28 06:42:01;;;;;;;23.35;9.23;;;;;;;9.69;33.25;101450.53;5112420;28;20028;-73
2022/03/28 06:44:27;;;;;;;16.45;8.00;;;;;;;9.99;32.58;101445.78;5112584;28;20024;-73
2022/03/28 06:46:52;;;;;;;24.88;9.13;;;;;;;10.31;31.79;101436.44;5113364;28;20066;-72
2022/03/28 06:49:18;;;;;;;26.02;9.00;;;;;;;10.66;31.15;101439.34;5113677;28;20110;-71
2022/03/28 06:51:43;;;;;;;17.95;7.75;;;;;;;10.98;30.62;101441.47;5111973;28;20051;-73
2022/03/28 06:54:10;;;;;;;16.70;8.05;;;;;;;11.26;29.49;101441.19;5114258;28;20102;-73
2022/03/28 06:56:36;;;;;;;20.35;7.72;;;;;;;11.49;29.85;101434.16;5113745;28;20027;-73
2022/03/28 06:59:02;;;;;;;17.67;7.28;;;;;;;11.77;29.46;101433.81;5113855;28;20386;-72
2022/03/28 07:01:28;;;;;;;13.77;6.75;;;;;;;12.03;28.96;101429.19;5112148;28;20038;-73
2022/03/28 07:03:55;;;;;;;12.65;6.47;;;;;;;12.31;28.46;101429.63;5113359;28;20036;-73
2022/03/28 07:06:20;;;;;;;17.73;6.72;;;;;;;12.50;28.09;101426.34;5112955;28;20020;-73
2022/03/28 07:08:46;;;;;;;17.05;7.10;;;;;;;12.70;28.17;101420.25;5111291;28;20031;-72
2022/03/28 07:11:12;;;;;;;14.02;8.20;;;;;;;12.99;26.91;101432.28;5112714;28;20024;-73
2022/03/28 07:13:37;;;;;;;17.52;8.10;;;;;;;13.22;26.51;101434.84;5110401;28;20027;-73
2022/03/28 07:16:03;;;;;;;16.50;7.70;;;;;;;13.46;25.76;101426.59;5112809;28;20095;-73
2022/03/28 07:18:28;;;;;;;13.18;6.72;;;;;;;13.71;25.45;101424.44;5112615;28;20035;-73
2022/03/28 07:20:54;;;;;;;13.82;6.43;;;;;;;13.90;25.62;101415.69;5112612;28;20050;-73
2022/03/28 07:23:20;;;;;;;12.90;6.30;;;;;;;14.23;25.31;101426.34;5112767;28;20102;-73
2022/03/28 07:25:46;;;;;;;12.98;5.20;;;;;;;14.47;25.11;101432.31;5110931;28;20065;-72
2022/03/28 07:28:13;;;;;;;11.30;5.35;;;;;;;14.70;24.85;101433.03;5112631;28;20120;-73
2022/03/28 07:30:39;;;;;;;15.07;5.65;;;;;;;14.89;24.43;101425.00;5112442;28;20109;-73
2022/03/28 07:33:06;;;;;;;15.23;5.90;;;;;;;15.05;24.82;101411.84;5111193;28;20055;-73
2022/03/28 07:35:36;;;;;;;12.35;5.43;;;;;;;15.29;24.16;101410.50;5111057;28;20027;-73
2022/03/28 07:38:07;;;;;;;10.32;5.90;;;;;;;15.58;23.71;101418.75;5111018;28;20475;-73
2022/03/28 07:40:33;;;;;;;20.92;6.45;;;;;;;15.75;23.77;101410.78;5112078;28;20084;-73
2022/03/28 07:42:59;;;;;;;14.02;6.07;;;;;;;15.96;23.64;101405.22;5101882;28;20023;-73
2022/03/28 07:45:24;;;;;;;42.58;8.10;;;;;;;16.22;23.43;101400.91;5110473;28;20062;-73
2022/03/28 07:47:50;;;;;;;17.15;6.63;;;;;;;16.40;22.98;101393.78;5110824;28;20049;-73
2022/03/28 07:50:15;;;;;;;18.25;6.85;;;;;;;16.62;22.42;101390.75;5111717;28;20134;-73
2022/03/28 07:52:41;;;;;;;9.77;5.63;;;;;;;16.90;22.57;101391.66;5110403;28;20027;-73
2022/03/28 07:55:08;;;;;;;14.10;6.60;;;;;;;17.18;21.98;101393.38;5111901;28;20023;-73
2022/03/28 07:57:38;;;;;;;12.18;6.53;;;;;;;17.50;22.05;101388.34;5108610;28;20031;-73
2022/03/28 08:00:06;;;;;;;18.40;6.40;;;;;;;17.88;21.18;101390.78;5111956;28;20032;-73
2022/03/28 08:02:31;;;;;;;13.85;5.60;;;;;;;18.38;21.48;101383.75;5110093;28;20478;-73
2022/03/28 08:04:57;;;;;;;15.82;6.25;;;;;;;19.05;20.35;101372.94;5110190;28;20085;-74
2022/03/28 08:07:22;;;;;;;12.65;5.43;;;;;;;19.81;19.75;101357.38;5109928;28;20034;-73
2022/03/28 08:09:48;;;;;;;12.55;5.18;;;;;;;20.73;19.17;101369.56;5111481;28;20507;-74
2022/03/28 08:12:15;;;;;;;7.43;4.15;;;;;;;21.74;18.33;101368.66;5110853;28;20564;-73
2022/03/28 08:14:40;;;;;;;16.35;3.80;;;;;;;22.93;17.58;101356.78;5109808;28;20027;-74
2022/03/28 08:17:06;;;;;;;7.40;3.63;;;;;;;24.02;16.41;101355.63;5111377;28;20348;-74
2022/03/28 08:19:32;;;;;;;6.30;3.60;;;;;;;25.05;15.61;101343.72;5111089;28;20023;-74
2022/03/28 08:21:58;;;;;;;7.32;3.17;;;;;;;25.93;15.03;101371.13;5111211;28;20031;-74
2022/03/28 08:24:23;;;;;;;10.35;2.90;;;;;;;26.73;14.63;101355.34;5109330;28;20042;-72
2022/03/28 08:26:49;;;;;;;4.85;2.85;;;;;;;27.47;14.01;101347.47;5110422;28;20050;-73
2022/03/28 08:29:15;;;;;;;4.75;2.83;;;;;;;28.04;13.61;101353.72;5110680;28;20134;-73
2022/03/28 08:31:41;;;;;;;8.20;3.20;;;;;;;28.61;13.27;101355.41;5109392;28;20042;-74
2022/03/28 08:34:07;;;;;;;8.35;2.83;;;;;;;29.25;13.06;101341.13;5110973;28;20024;-73
2022/03/28 08:36:34;;;;;;;9.15;3.15;;;;;;;29.75;12.87;101348.09;5110638;28;20387;-73
2022/03/28 08:39:00;;;;;;;6.68;2.80;;;;;;;30.15;12.74;101335.38;5109290;28;20035;-73
2022/03/28 08:41:26;;;;;;;7.43;2.90;;;;;;;30.60;12.82;101336.53;5110093;28;20028;-74
2022/03/28 08:43:52;;;;;;;6.50;2.72;;;;;;;30.87;12.71;101334.97;5109162;28;20035;-73
2022/03/28 08:46:18;;;;;;;8.02;2.92;;;;;;;31.08;12.29;101314.91;5109627;28;20026;-74
2022/03/28 08:48:44;;;;;;;6.30;2.97;;;;;;;31.37;12.48;101324.16;5110625;28;20048;-73
2022/03/28 08:51:13;;;;;;;6.88;3.28;;;;;;;31.42;12.55;101310.38;5110446;28;20076;-73
2022/03/28 08:53:39;;;;;;;10.05;3.00;;;;;;;31.87;12.50;101314.91;5110332;28;20058;-74
2022/03/28 08:56:07;;;;;;;3.30;2.53;;;;;;;32.16;12.18;101305.44;5108405;28;20047;-74
2022/03/28 08:58:34;;;;;;;5.63;2.35;;;;;;;32.36;12.00;101308.56;5110489;28;20027;-74
2022/03/28 09:01:00;;;;;;;10.05;2.80;;;;;;;32.55;12.18;101309.13;5110348;28;20035;-73
2022/03/28 09:03:42;;;;;;;4.50;2.60;;;;;;;32.60;12.25;101310.03;5110076;28;20027;-74
2022/03/28 09:06:33;;;;;;;7.60;2.78;;;;;;;32.89;12.17;101305.22;5108894;28;20436;-73
2022/03/28 09:09:13;;;;;;;7.53;2.78;;;;;;;33.19;12.04;101305.63;5109300;28;20540;-72
2022/03/28 09:11:40;;;;;;;8.25;2.88;;;;;;;33.19;12.00;101307.53;5107874;28;20065;-72
2022/03/28 09:14:06;;;;;;;7.13;3.10;;;;;;;33.28;12.21;101292.94;5108903;28;20019;-74
2022/03/28 09:16:34;;;;;;;8.45;3.08;;;;;;;33.32;12.16;101287.69;5107265;28;20034;-73
2022/03/28 09:19:08;;;;;;;7.15;2.63;;;;;;;33.58;12.45;101282.16;5108014;28;20031;-73
2022/03/28 09:21:33;;;;;;;9.40;2.80;;;;;;;33.75;12.46;101287.66;5106491;28;20039;-73
2022/03/28 09:23:59;;;;;;;9.25;3.03;;;;;;;33.70;12.78;101271.72;5107123;28;20035;-73
2022/03/28 09:26:26;;;;;;;6.13;3.00;;;;;;;33.97;12.66;101283.69;5109329;28;20073;-73
2022/03/28 09:29:00;;;;;;;9.13;2.95;;;;;;;34.00;12.75;101285.09;5108884;28;20064;-74
2022/03/28 09:31:35;;;;;;;7.85;3.53;;;;;;;34.03;13.01;101262.28;5107535;28;20034;-73
2022/03/28 09:34:15;;;;;;;4.80;3.53;;;;;;;34.29;12.67;101276.16;5105371;28;20072;-74
2022/03/28 09:36:48;;;;;;;11.27;3.67;;;;;;;34.86;12.34;101262.38;5106599;28;20027;-73
2022/03/28 09:39:18;;;;;;;10.43;4.63;;;;;;;34.52;12.23;101253.50;5109193;28;20058;-73
2022/03/28 09:41:59;;;;;;;8.68;3.97;;;;;;;34.53;12.44;101246.00;5107714;28;20023;-73
2022/03/28 09:44:46;;;;;;;5.72;3.50;;;;;;;33.99;12.46;101247.22;5106559;28;20023;-73
2022/03/28 09:47:16;;;;;;;4.72;3.50;;;;;;;33.41;13.15;101239.72;5107434;28;20481;-73
2022/03/28 09:49:44;;;;;;;8.20;4.80;;;;;;;32.75;14.27;101248.28;5107553;28;20039;-74
2022/03/28 09:52:11;;;;;;;7.82;4.63;;;;;;;32.66;14.16;101249.84;5107598;28;20027;-74
2022/03/28 09:54:51;;;;;;;11.20;5.70;;;;;;;31.19;15.68;101225.34;5108959;28;20039;-74
2022/03/28 09:57:37;;;;;;;9.73;5.05;;;;;;;30.17;16.47;101228.88;5107339;28;20036;-73
2022/03/28 10:00:12;;;;;;;9.95;4.95;;;;;;;30.04;16.58;101234.63;5106563;28;20080;-74
2022/03/28 10:02:38;;;;;;;6.88;4.75;;;;;;;28.71;17.66;101225.06;5107509;28;20023;-73
2022/03/28 10:05:05;;;;;;;8.57;5.03;;;;;;;27.78;18.05;101218.75;5108840;28;20027;-73
2022/03/28 10:07:31;;;;;;;5.30;4.80;;;;;;;27.30;18.70;101214.84;5107554;28;20050;-73
2022/03/28 10:09:58;;;;;;;8.93;5.68;;;;;;;26.48;19.64;101213.91;5108932;28;20035;-73
2022/03/28 10:12:24;;;;;;;5.88;5.28;;;;;;;26.26;19.87;101212.50;5108687;28;20045;-74
2022/03/28 10:14:54;;;;;;;5.88;4.95;;;;;;;25.61;20.45;101199.63;5107736;28;20028;-74
2022/03/28 10:17:19;;;;;;;8.95;5.10;;;;;;;25.19;21.22;101205.44;5107685;28;20023;-74
2022/03/28 10:19:45;;;;;;;13.05;5.28;;;;;;;24.93;21.35;101208.13;5109894;28;20109;-74
2022/03/28 10:22:17;;;;;;;9.52;5.18;;;;;;;24.61;21.81;101191.47;5112673;28;20020;-73
2022/03/28 10:24:45;;;;;;;7.00;4.93;;;;;;;24.25;22.45;101197.22;5112500;28;20019;-74
2022/03/28 10:27:11;;;;;;;14.23;4.60;;;;;;;24.19;22.56;101176.91;5112350;28;20019;-74
2022/03/28 10:29:42;;;;;;;7.90;4.72;;;;;;;23.94;22.73;101174.84;5111886;28;20039;-74
2022/03/28 10:32:17;;;;;;;7.30;4.60;;;;;;;23.66;22.62;101171.22;5112302;28;20081;-74
2022/03/28 10:34:53;;;;;;;7.53;4.55;;;;;;;23.49;22.62;101181.63;5110797;28;20024;-75
2022/03/28 10:37:45;;;;;;;6.90;4.55;;;;;;;23.38;22.91;101173.09;5112274;28;20077;-73
2022/03/28 10:40:23;;;;;;;9.98;4.72;;;;;;;23.20;23.20;101175.41;5110902;28;20119;-74
2022/03/28 10:42:55;;;;;;;7.38;4.70;;;;;;;23.10;23.25;101172.16;5110630;28;20035;-74
2022/03/28 10:45:30;;;;;;;6.05;4.50;;;;;;;22.87;23.85;101153.19;5110826;28;20507;-74
2022/03/28 10:47:59;;;;;;;9.88;4.10;;;;;;;22.77;23.92;101155.41;5111872;28;20026;-73
2022/03/28 10:50:31;;;;;;;4.97;4.40;;;;;;;22.67;23.81;101157.59;5112218;28;20435;-74
2022/03/28 10:53:03;;;;;;;10.57;4.40;;;;;;;22.55;23.91;101152.78;5110638;28;20060;-74
2022/03/28 10:55:53;;;;;;;6.40;4.40;;;;;;;22.35;24.00;101139.69;5111799;28;20116;-74
2022/03/28 10:58:23;;;;;;;7.82;4.20;;;;;;;22.30;24.53;101141.28;5105696;28;20100;-74
2022/03/28 11:01:13;;;;;;;8.32;4.43;;;;;;;22.35;24.72;101150.63;5111706;28;21152;-74
2022/03/28 11:03:53;;;;;;;8.95;4.07;;;;;;;22.48;24.49;101141.75;5109966;28;20027;-74
2022/03/28 11:07:03;;;;;;;8.15;4.35;;;;;;;22.22;24.59;101136.78;5110689;28;20475;-74
2022/03/28 11:09:41;;;;;;;7.25;4.53;;;;;;;22.04;24.92;101121.81;5110992;28;20083;-74
2022/03/28 11:12:34;;;;;;;9.80;4.93;;;;;;;22.00;25.15;101120.50;5109544;28;20490;-75
2022/03/28 11:15:15;;;;;;;7.38;4.60;;;;;;;21.93;24.86;101114.94;5107366;28;20186;-74
2022/03/28 11:18:09;;;;;;;5.22;4.35;;;;;;;21.82;25.07;101106.34;5112550;28;20058;-75